Weerspreuk van de week. Wanneer de oostenwind tegen den avond gaat liggen, waait hij ligt de volgende dag opnieuw.
Extrem hohe Temperatur Gültig von: 25-08-2019 09:00 bis: 27-08-2019 09:00 Warnung für: Extrem hohe Temperatur Gefahrenstufe: Gelb info button
Aanhoudende hitte, Het Nationaal Hitteplan van het RIVM is actief.Er is sprake van aanhoudende hitte.Besteed extra zorg en aandacht aan kwetsbare mensen in uw omgeving.Met name ouderen en mensen met een chronische aandoening wordt geadviseerd maatregelen te nemen: drink voldoende, houd uzelf en uw woning koel.

english: Prolonged heat.The National Heatplan from RIVM is in effect.BE AWARE that high temperatures are expected.Some health risks amongst vulnerable people like the elderly and very young are possible. 



Thunder radar more information blitzortung!


Rain radar more information rain snow radar


Bekijk deze sites ook eens:

FPL Automotive (TIP)

Autostekkers.nl (TIP)

Over Luyksgestel

De Kempen, mijn omgeving

BOL.com

Weerstation Noordbergum

Inktweb

Weerstation Hapert

Weerstation Hoogeloon

Weerstation Son&Breugel

Weerstation Castaert

Smartphonehoesjes

Weerstation Tilburg Reeshof

Weerstation Scheulder

Weerverwachting Samos

Samos actueel

Weerwoord (forum)

Griekenlandforum

Vakantie naar Samos

Zomerzon

Canon

Beleef de lente

Wolven in Nederland



METAR-Meldungen aus der Umgebung

   
EBAW - Antwerp
Aktualisierung: 25-08-2019 10:50
Klar  
Klar  
   Wind: variiert 3.7 km/h
Wind: variiert 3.7 km/h
Temperatur: 26°C
Taupunkt: 17°C
Luftfeuchte: 58%
Luftdruck: 1019 hPa
Sichtbarkeit: More than 10 km
Bewölkung: Klar
EBAW 250850Z VRB02KT CAVOK 26/17 Q1019 NOSIG
EBLG - Liège
Aktualisierung: 25-08-2019 10:50
Klar  
Klar  
   Wind: SSO 5.6 km/h
Wind: SSO 5.6 km/h
Temperatur: 25°C
Taupunkt: 15°C
Luftfeuchte: 54%
Luftdruck: 1020 hPa
Sichtbarkeit: More than 10 km
Bewölkung: Klar
EBLG 250850Z 16003KT 110V230 CAVOK 25/15 Q1020 NOSIG
EBCV - Mons/Bergen
Aktualisierung: 25-08-2019 10:55
Klar  
Klar  
   Wind: WSW 5.6 km/h
Wind: WSW 5.6 km/h
Temperatur: 25°C
Taupunkt: 16°C
Luftfeuchte: 57%
Luftdruck: 1019 hPa
Bewölkt: Klar
Sichtbarkeit: More than 10 km
Bewölkung: Klar
EBCV 250855Z AUTO 24003KT 9999 NCD 25/16 Q1019 BLU
EHBK - Maastricht
Aktualisierung: 25-08-2019 10:55
Teilweise bewölkt  
Teilweise bewölkt  
   Wind: variiert 5.6 km/h
Wind: variiert 5.6 km/h
Temperatur: 26°C
Taupunkt: 16°C
Luftfeuchte: 54%
Luftdruck: 1019 hPa
Bewölkt: Teilweise bewölkt
Sichtbarkeit: More than 10 km
Bewölkung: Teilweise bewölkt
EHBK 250855Z AUTO VRB03KT 9999 NSC 26/16 Q1019 NOSIG
ELLX - Luxemburg
Aktualisierung: 25-08-2019 10:50
Klar  
Klar  
   Wind: Osten 3.7 km/h
Wind: Osten 3.7 km/h
Temperatur: 25°C
Taupunkt: 13°C
Luftfeuchte: 47%
Luftdruck: 1021 hPa
Sichtbarkeit: More than 10 km
Bewölkung: Klar
ELLX 250850Z 10002KT CAVOK 25/13 Q1021 NOSIG
EBOS - Oostende
Aktualisierung: 25-08-2019 10:50
Klar  
Klar  
   Wind: variiert 3.7 km/h
Wind: variiert 3.7 km/h
Temperatur: 25°C
Taupunkt: 16°C
Luftfeuchte: 57%
Luftdruck: 1019 hPa
Sichtbarkeit: More than 10 km
Bewölkung: Klar
EBOS 250850Z VRB02KT CAVOK 25/16 Q1019 NOSIG

Script entwickelt von  Saratoga-weather.org Angepasst für das Template von  Weerstation Leuven

Sie finden unser Wetter-Infos auch auf:

Het Weer Aktueel

UK Metoffice

European Weather Network

Weather Underground

AWEKAS



Lekker winkelen zonder zorgen - Gratis verzending en retour